createdAt,value
2022-10-05T00:01:52.441Z,8.52
2022-10-05T00:04:21.941Z,9.38
2022-10-05T00:07:17.316Z,9.50
2022-10-05T00:09:55.291Z,10.07
2022-10-05T00:12:22.612Z,9.70
2022-10-05T00:14:51.076Z,10.40
2022-10-05T00:17:26.233Z,9.77
2022-10-05T00:19:53.945Z,9.52
2022-10-05T00:22:23.441Z,8.75
2022-10-05T00:24:55.028Z,9.27
2022-10-05T00:27:24.636Z,13.60
2022-10-05T00:29:53.706Z,30.15
2022-10-05T00:32:20.089Z,22.50
2022-10-05T00:34:46.701Z,19.15
2022-10-05T00:37:14.173Z,17.98
2022-10-05T00:39:42.139Z,16.00
2022-10-05T00:42:30.296Z,13.32
2022-10-05T00:45:30.787Z,12.00
2022-10-05T00:48:26.711Z,43.90
2022-10-05T00:51:12.764Z,62.80
2022-10-05T00:53:59.419Z,69.18
2022-10-05T00:56:51.746Z,57.58
2022-10-05T01:02:18.252Z,63.28
2022-10-05T01:05:07.638Z,45.28
2022-10-05T01:07:49.755Z,47.40
2022-10-05T01:10:49.853Z,23.75
2022-10-05T01:13:41.659Z,18.33
2022-10-05T01:16:44.200Z,16.67
2022-10-05T01:19:21.475Z,15.52
2022-10-05T01:22:22.079Z,13.77
2022-10-05T01:25:17.912Z,14.00
2022-10-05T01:27:47.244Z,12.88
2022-10-05T01:30:23.388Z,14.07
2022-10-05T01:32:58.553Z,12.77
2022-10-05T01:35:33.969Z,12.90
2022-10-05T01:38:25.423Z,13.65
2022-10-05T01:43:39.296Z,12.38
2022-10-05T01:46:37.879Z,11.60
2022-10-05T01:49:34.734Z,11.35
2022-10-05T01:52:18.960Z,10.88
2022-10-05T01:55:04.402Z,11.13
2022-10-05T01:57:46.155Z,12.13
2022-10-05T02:00:19.579Z,10.70
2022-10-05T02:02:50.134Z,10.90
2022-10-05T02:05:21.487Z,10.68
2022-10-05T02:08:03.533Z,9.48
2022-10-05T02:10:38.265Z,8.95
2022-10-05T02:13:24.535Z,9.10
2022-10-05T02:15:56.413Z,8.63
2022-10-05T02:18:35.550Z,9.63
2022-10-05T02:21:05.247Z,6.88
2022-10-05T02:23:36.185Z,7.97
2022-10-05T02:26:03.312Z,8.13
2022-10-05T02:28:38.233Z,6.97
2022-10-05T02:31:12.683Z,7.28
2022-10-05T02:33:39.483Z,6.88
2022-10-05T02:36:28.032Z,7.90
2022-10-05T02:39:14.828Z,7.05
2022-10-05T02:41:53.152Z,7.72
2022-10-05T02:44:45.614Z,7.88
2022-10-05T02:47:23.761Z,8.15
2022-10-05T02:50:12.140Z,8.05
2022-10-05T02:53:06.890Z,8.63
2022-10-05T02:55:52.107Z,7.85
2022-10-05T02:58:23.379Z,8.63
2022-10-05T03:00:58.945Z,9.15
2022-10-05T03:03:41.607Z,8.77
2022-10-05T03:06:25.679Z,8.20
2022-10-05T03:09:03.923Z,8.35
2022-10-05T03:11:46.666Z,8.18
2022-10-05T03:14:30.207Z,8.80
2022-10-05T03:17:18.048Z,9.35
2022-10-05T03:20:23.443Z,8.18
2022-10-05T03:22:56.936Z,8.65
2022-10-05T03:25:54.025Z,7.90
2022-10-05T03:28:36.094Z,9.10
2022-10-05T03:31:17.938Z,8.77
2022-10-05T03:33:53.481Z,7.43
2022-10-05T03:36:55.199Z,8.15
2022-10-05T03:39:39.020Z,8.18
2022-10-05T03:42:15.307Z,7.95
2022-10-05T03:45:00.515Z,7.80
2022-10-05T03:47:45.323Z,8.02
2022-10-05T03:50:44.599Z,8.00
2022-10-05T03:53:22.028Z,8.13
2022-10-05T03:56:12.583Z,8.65
2022-10-05T03:58:54.472Z,7.75
2022-10-05T04:01:36.179Z,9.38
2022-10-05T04:04:07.160Z,8.15
2022-10-05T04:06:39.051Z,7.10
2022-10-05T04:09:30.156Z,6.93
2022-10-05T04:12:15.564Z,6.50
2022-10-05T04:14:47.534Z,8.60
2022-10-05T04:17:17.952Z,7.80
2022-10-05T04:19:50.974Z,7.95
2022-10-05T04:22:25.296Z,8.45
2022-10-05T04:24:58.371Z,7.43
2022-10-05T04:27:33.383Z,6.40
2022-10-05T04:30:10.124Z,7.25
2022-10-05T04:32:43.746Z,7.50
2022-10-05T04:35:24.606Z,8.68
2022-10-05T04:38:29.225Z,7.68
2022-10-05T04:41:21.663Z,7.55
2022-10-05T04:44:19.596Z,6.38
2022-10-05T04:47:12.354Z,6.50
2022-10-05T04:49:57.005Z,6.35
2022-10-05T04:53:02.105Z,5.93
2022-10-05T04:55:53.078Z,5.60
2022-10-05T04:58:42.521Z,6.20
2022-10-05T05:01:28.977Z,6.65
2022-10-05T05:04:29.550Z,7.85
2022-10-05T05:07:11.719Z,6.35
2022-10-05T05:10:15.045Z,6.88
2022-10-05T05:12:47.649Z,10.65
2022-10-05T05:15:26.293Z,10.95
2022-10-05T05:18:29.915Z,8.45
2022-10-05T05:21:08.350Z,5.85
2022-10-05T05:23:44.246Z,34.10
2022-10-05T05:26:28.728Z,15.38
2022-10-05T05:29:23.332Z,12.57
2022-10-05T05:31:53.225Z,8.27
2022-10-05T05:34:32.288Z,8.07
2022-10-05T05:37:22.974Z,11.65
2022-10-05T05:40:03.776Z,13.60
2022-10-05T05:42:50.633Z,13.77
2022-10-05T05:45:41.748Z,12.90
2022-10-05T05:48:22.041Z,8.27
2022-10-05T05:51:39.359Z,8.13
2022-10-05T05:54:29.631Z,8.18
2022-10-05T05:57:13.064Z,8.30
2022-10-05T05:59:52.105Z,9.63
2022-10-05T06:02:25.460Z,11.15
2022-10-05T06:05:10.809Z,12.15
2022-10-05T06:07:38.337Z,11.38
2022-10-05T06:10:19.630Z,11.70
2022-10-05T06:13:01.895Z,10.35
2022-10-05T06:15:36.394Z,8.65
2022-10-05T06:18:11.187Z,7.55
2022-10-05T06:20:48.960Z,7.57
2022-10-05T06:23:23.266Z,7.72
2022-10-05T06:26:10.808Z,8.25
2022-10-05T06:28:39.085Z,8.90
2022-10-05T06:31:29.738Z,9.18
2022-10-05T06:34:16.550Z,8.55
2022-10-05T06:36:50.808Z,8.25
2022-10-05T06:39:38.296Z,7.78
2022-10-05T06:42:26.271Z,8.98
2022-10-05T06:45:48.455Z,10.68
2022-10-05T06:49:02.423Z,10.45
2022-10-05T06:52:32.239Z,10.55
2022-10-05T06:55:34.125Z,11.27
2022-10-05T06:58:34.655Z,12.70
2022-10-05T07:01:11.175Z,12.02
2022-10-05T07:04:09.533Z,12.60
2022-10-05T07:06:49.152Z,12.57
2022-10-05T07:09:21.237Z,9.88
2022-10-05T07:12:08.436Z,10.30
2022-10-05T07:15:03.411Z,10.18
2022-10-05T07:17:57.113Z,10.68
2022-10-05T07:20:32.561Z,11.50
2022-10-05T07:23:19.683Z,11.77
2022-10-05T07:26:01.726Z,12.48
2022-10-05T07:31:17.001Z,12.18
2022-10-05T07:34:07.068Z,13.15
2022-10-05T07:36:59.683Z,13.05
2022-10-05T07:39:58.999Z,12.63
2022-10-05T07:43:06.890Z,11.75
2022-10-05T07:45:46.680Z,11.88
2022-10-05T07:48:26.242Z,11.93
2022-10-05T07:51:23.868Z,12.60
2022-10-05T07:54:16.637Z,10.63
2022-10-05T07:56:49.001Z,10.93
2022-10-05T07:59:29.879Z,12.15
2022-10-05T08:02:07.333Z,13.07
2022-10-05T08:04:41.964Z,12.05
2022-10-05T08:07:15.641Z,13.23
2022-10-05T08:09:58.328Z,13.35
2022-10-05T08:12:43.441Z,13.18
2022-10-05T08:15:20.477Z,12.13
2022-10-05T08:17:59.324Z,12.98
2022-10-05T08:20:39.184Z,12.50
2022-10-05T08:23:17.529Z,12.70
2022-10-05T08:26:01.262Z,13.25
2022-10-05T08:28:34.054Z,12.20
2022-10-05T08:31:10.850Z,12.38
2022-10-05T08:33:53.935Z,13.05
2022-10-05T08:36:28.950Z,12.73
2022-10-05T08:39:03.951Z,11.85
2022-10-05T08:41:58.807Z,12.20
2022-10-05T08:44:58.051Z,11.13
2022-10-05T08:47:39.476Z,10.23
2022-10-05T08:50:31.086Z,8.73
2022-10-05T08:53:16.315Z,5.50
2022-10-05T08:56:09.165Z,4.65
2022-10-05T08:58:53.867Z,4.53
2022-10-05T09:01:32.990Z,4.10
2022-10-05T09:04:24.831Z,4.75
2022-10-05T09:07:15.272Z,4.40
2022-10-05T09:10:15.769Z,4.45
2022-10-05T09:12:54.230Z,4.45
2022-10-05T09:15:39.340Z,3.90
2022-10-05T09:18:42.951Z,5.05
2022-10-05T09:21:18.444Z,5.05
2022-10-05T09:23:57.389Z,4.75
2022-10-05T09:26:45.772Z,4.45
2022-10-05T09:29:49.881Z,5.18
2022-10-05T09:32:51.762Z,5.05
2022-10-05T09:35:47.588Z,4.95
2022-10-05T09:38:25.410Z,5.00
2022-10-05T09:41:10.751Z,5.45
2022-10-05T09:44:12.743Z,5.10
2022-10-05T09:47:17.787Z,5.03
2022-10-05T09:50:00.965Z,4.43
2022-10-05T09:52:27.353Z,4.25
2022-10-05T09:55:16.558Z,4.88
2022-10-05T09:57:55.149Z,5.75
2022-10-05T10:00:28.041Z,5.00
2022-10-05T10:03:24.822Z,5.20
2022-10-05T10:06:24.437Z,5.93
2022-10-05T10:09:29.009Z,5.82
2022-10-05T10:12:17.018Z,6.57
2022-10-05T10:15:28.436Z,6.28
2022-10-05T10:18:23.805Z,6.63
2022-10-05T10:21:04.761Z,6.85
2022-10-05T10:24:08.850Z,7.10
2022-10-05T10:26:54.724Z,7.18
2022-10-05T10:29:45.867Z,7.68
2022-10-05T10:32:20.727Z,7.00
2022-10-05T10:35:22.019Z,7.20
2022-10-05T10:38:23.633Z,7.55
2022-10-05T10:41:02.191Z,7.30
2022-10-05T10:43:34.634Z,7.40
2022-10-05T10:46:39.372Z,6.97
2022-10-05T10:49:43.283Z,6.78
2022-10-05T10:52:19.859Z,7.03
2022-10-05T10:55:15.676Z,6.93
2022-10-05T10:58:04.143Z,6.28
2022-10-05T11:00:40.670Z,6.07
2022-10-05T11:03:40.757Z,6.53
2022-10-05T11:06:28.947Z,7.07
2022-10-05T11:09:03.069Z,6.00
2022-10-05T11:11:49.259Z,6.65
2022-10-05T11:14:40.104Z,6.32
2022-10-05T11:17:18.413Z,6.00
2022-10-05T11:20:06.771Z,5.68
2022-10-05T11:22:51.876Z,6.20
2022-10-05T11:25:56.280Z,5.18
2022-10-05T11:28:40.496Z,5.57
2022-10-05T11:31:25.587Z,6.43
2022-10-05T11:34:29.092Z,5.50
2022-10-05T11:37:14.570Z,5.47
2022-10-05T11:39:49.861Z,5.28
2022-10-05T11:42:50.013Z,5.18
2022-10-05T11:45:23.201Z,5.47
2022-10-05T11:47:58.597Z,5.47
2022-10-05T11:50:35.259Z,4.95
2022-10-05T11:53:12.012Z,4.80
2022-10-05T11:56:03.005Z,5.10
2022-10-05T11:58:36.471Z,4.47
2022-10-05T12:01:21.945Z,4.78
2022-10-05T12:04:03.324Z,4.60
2022-10-05T12:06:43.413Z,4.47
2022-10-05T12:09:36.990Z,5.10
2022-10-05T12:12:15.511Z,4.68
2022-10-05T12:14:54.126Z,5.53
2022-10-05T12:18:04.571Z,6.13
2022-10-05T12:20:53.245Z,6.80
2022-10-05T12:23:34.793Z,6.10
2022-10-05T12:26:05.658Z,5.90
2022-10-05T12:28:43.291Z,5.68
2022-10-05T12:31:15.633Z,6.78
2022-10-05T12:33:51.188Z,5.30
2022-10-05T12:36:52.430Z,5.43
2022-10-05T12:39:40.763Z,5.95
2022-10-05T12:42:22.007Z,5.18
2022-10-05T12:45:17.991Z,4.82
2022-10-05T12:47:59.031Z,4.47
2022-10-05T12:50:36.581Z,4.25
2022-10-05T12:53:30.272Z,4.38
2022-10-05T12:56:41.412Z,4.88
2022-10-05T12:59:07.725Z,5.05
2022-10-05T13:01:46.724Z,4.50
2022-10-05T13:04:25.236Z,4.38
2022-10-05T13:07:07.571Z,4.35
2022-10-05T13:09:44.762Z,4.50
2022-10-05T13:12:29.710Z,5.45
2022-10-05T13:15:14.646Z,4.45
2022-10-05T13:17:57.382Z,4.10
2022-10-05T13:20:31.824Z,4.38
2022-10-05T13:23:18.424Z,4.07
2022-10-05T13:25:56.948Z,4.45
2022-10-05T13:28:37.508Z,4.40
2022-10-05T13:31:15.123Z,4.05
2022-10-05T13:33:53.752Z,3.95
2022-10-05T13:36:53.522Z,4.75
2022-10-05T13:39:53.354Z,3.40
2022-10-05T13:42:45.911Z,4.20
2022-10-05T13:45:23.548Z,4.88
2022-10-05T13:47:58.341Z,5.00
2022-10-05T13:50:35.181Z,4.55
2022-10-05T13:53:29.517Z,5.07
2022-10-05T13:55:55.843Z,4.85
2022-10-05T13:58:24.904Z,4.75
2022-10-05T14:00:57.964Z,4.95
2022-10-05T14:03:37.196Z,3.92
2022-10-05T14:06:12.135Z,4.78
2022-10-05T14:08:54.360Z,4.95
2022-10-05T14:11:31.388Z,4.57
2022-10-05T14:14:25.690Z,5.60
2022-10-05T14:16:55.952Z,5.10
2022-10-05T14:19:40.857Z,5.13
2022-10-05T14:22:24.673Z,4.63
2022-10-05T14:25:02.836Z,5.32
2022-10-05T14:27:33.031Z,4.95
2022-10-05T14:30:16.846Z,5.67
2022-10-05T14:32:56.108Z,4.97
2022-10-05T14:35:30.208Z,5.95
2022-10-05T14:38:00.350Z,5.03
2022-10-05T14:40:36.116Z,4.70
2022-10-05T14:43:32.596Z,5.53
2022-10-05T14:46:23.410Z,5.28
2022-10-05T14:49:23.109Z,5.53
2022-10-05T14:51:54.152Z,5.07
2022-10-05T14:54:25.442Z,6.57
2022-10-05T14:57:04.448Z,5.13
2022-10-05T14:59:41.044Z,5.30
2022-10-05T15:02:47.951Z,5.13
2022-10-05T15:05:26.679Z,6.32
2022-10-05T15:08:01.219Z,6.05
2022-10-05T15:10:42.774Z,5.65
2022-10-05T15:13:15.505Z,6.22
2022-10-05T15:15:54.535Z,6.70
2022-10-05T15:18:49.920Z,5.85
2022-10-05T15:21:23.715Z,6.05
2022-10-05T15:23:57.315Z,5.68
2022-10-05T15:26:33.057Z,6.45
2022-10-05T15:29:07.923Z,6.57
2022-10-05T15:31:49.988Z,6.40
2022-10-05T15:34:27.093Z,7.00
2022-10-05T15:37:07.648Z,7.38
2022-10-05T15:39:35.066Z,6.78
2022-10-05T15:42:14.534Z,5.90
2022-10-05T15:45:06.348Z,6.07
2022-10-05T15:47:59.358Z,6.10
2022-10-05T15:50:29.593Z,5.60
2022-10-05T15:53:13.031Z,6.17
2022-10-05T15:55:46.988Z,5.30
2022-10-05T15:58:35.548Z,5.72
2022-10-05T16:01:11.032Z,5.32
2022-10-05T16:03:59.111Z,5.50
2022-10-05T16:06:56.807Z,6.05
2022-10-05T16:09:32.170Z,5.50
2022-10-05T16:12:10.675Z,4.55
2022-10-05T16:14:53.339Z,4.93
2022-10-05T16:17:43.632Z,3.88
2022-10-05T16:20:41.402Z,4.85
2022-10-05T16:23:28.289Z,4.55
2022-10-05T16:26:09.364Z,4.88
2022-10-05T16:28:50.332Z,4.20
2022-10-05T16:31:40.177Z,4.32
2022-10-05T16:34:29.521Z,3.97
2022-10-05T16:37:11.210Z,4.35
2022-10-05T16:39:49.920Z,4.22
2022-10-05T16:42:43.941Z,3.85
2022-10-05T16:45:44.783Z,4.40
2022-10-05T16:48:26.247Z,4.07
2022-10-05T16:51:16.265Z,3.80
2022-10-05T16:54:01.167Z,4.03
2022-10-05T16:56:39.637Z,3.58
2022-10-05T16:59:27.816Z,3.65
2022-10-05T17:02:16.473Z,3.97
2022-10-05T17:05:30.152Z,3.55
2022-10-05T17:08:15.207Z,3.78
2022-10-05T17:11:06.776Z,4.05
2022-10-05T17:13:43.381Z,4.13
2022-10-05T17:16:42.976Z,4.13
2022-10-05T17:19:32.913Z,4.05
2022-10-05T17:22:07.049Z,4.35
2022-10-05T17:24:49.023Z,4.90
2022-10-05T17:27:17.785Z,4.60
2022-10-05T17:30:15.066Z,4.90
2022-10-05T17:33:04.513Z,4.38
2022-10-05T17:35:51.752Z,4.78
2022-10-05T17:38:30.348Z,3.95
2022-10-05T17:40:59.725Z,4.85
2022-10-05T17:43:28.558Z,5.18
2022-10-05T17:46:00.992Z,4.72
2022-10-05T17:48:49.677Z,5.13
2022-10-05T17:51:47.108Z,5.38
2022-10-05T17:55:10.958Z,5.00
2022-10-05T17:57:39.471Z,5.53
2022-10-05T18:00:34.945Z,5.95
2022-10-05T18:03:33.681Z,5.45
2022-10-05T18:06:37.207Z,5.00
2022-10-05T18:09:42.445Z,5.63
2022-10-05T18:12:18.066Z,5.43
2022-10-05T18:15:07.032Z,5.03
2022-10-05T18:17:51.355Z,5.18
2022-10-05T18:20:28.625Z,4.72
2022-10-05T18:23:07.145Z,4.28
2022-10-05T18:25:33.439Z,4.75
2022-10-05T18:28:18.319Z,4.38
2022-10-05T18:31:12.024Z,4.50
2022-10-05T18:33:59.511Z,4.50
2022-10-05T18:37:07.092Z,4.47
2022-10-05T18:39:58.164Z,4.03
2022-10-05T18:42:33.401Z,4.53
2022-10-05T18:45:24.116Z,4.68
2022-10-05T18:47:59.456Z,4.78
2022-10-05T18:50:48.600Z,5.20
2022-10-05T18:53:33.157Z,8.80
2022-10-05T18:56:23.721Z,14.80
2022-10-05T18:59:14.488Z,18.92
2022-10-05T19:01:57.959Z,17.45
2022-10-05T19:04:32.123Z,16.50
2022-10-05T19:07:07.438Z,16.55
2022-10-05T19:10:13.065Z,14.43
2022-10-05T19:13:08.799Z,11.30
2022-10-05T19:15:45.562Z,10.27
2022-10-05T19:18:41.340Z,8.43
2022-10-05T19:21:16.987Z,6.75
2022-10-05T19:23:58.867Z,6.35
2022-10-05T19:26:43.995Z,5.35
2022-10-05T19:29:27.004Z,5.20
2022-10-05T19:32:13.049Z,4.63
2022-10-05T19:34:47.120Z,4.68
2022-10-05T19:37:21.372Z,4.40
2022-10-05T19:39:58.557Z,4.65
2022-10-05T19:42:42.363Z,4.80
2022-10-05T19:45:27.593Z,5.22
2022-10-05T19:48:13.757Z,5.00
2022-10-05T19:50:53.013Z,6.18
2022-10-05T19:53:29.387Z,5.53
2022-10-05T19:55:56.041Z,4.78
2022-10-05T19:58:31.450Z,4.88
2022-10-05T20:01:00.711Z,5.13
2022-10-05T20:03:37.148Z,4.63
2022-10-05T20:06:08.701Z,4.72
2022-10-05T20:08:43.768Z,5.00
2022-10-05T20:11:11.639Z,5.20
2022-10-05T20:13:41.780Z,5.10
2022-10-05T20:16:36.224Z,4.25
2022-10-05T20:19:41.052Z,4.70
2022-10-05T20:22:46.206Z,4.70
2022-10-05T20:25:29.216Z,4.18
2022-10-05T20:27:56.479Z,5.05
2022-10-05T20:30:28.707Z,4.25
2022-10-05T20:33:00.524Z,4.57
2022-10-05T20:35:30.448Z,4.95
2022-10-05T20:38:00.792Z,3.45
2022-10-05T20:40:30.421Z,4.00
2022-10-05T20:42:58.399Z,4.20
2022-10-05T20:45:24.992Z,4.07
2022-10-05T20:47:51.340Z,3.65
2022-10-05T20:50:18.282Z,4.38
2022-10-05T20:52:44.649Z,4.32
2022-10-05T20:55:11.906Z,4.15
2022-10-05T20:57:41.778Z,3.97
2022-10-05T21:00:12.558Z,4.13
2022-10-05T21:02:39.344Z,3.75
2022-10-05T21:05:07.467Z,3.85
2022-10-05T21:07:34.125Z,3.70
2022-10-05T21:10:01.224Z,4.10
2022-10-05T21:12:27.764Z,3.20
2022-10-05T21:14:54.210Z,4.25
2022-10-05T21:17:20.551Z,4.10
2022-10-05T21:19:47.317Z,3.80
2022-10-05T21:22:13.670Z,4.47
2022-10-05T21:24:40.904Z,4.05
2022-10-05T21:27:07.680Z,4.28
2022-10-05T21:29:35.251Z,3.60
2022-10-05T21:32:01.760Z,3.85
2022-10-05T21:34:28.680Z,3.70
2022-10-05T21:36:55.361Z,3.53
2022-10-05T21:39:21.879Z,3.22
2022-10-05T21:41:49.806Z,3.63
2022-10-05T21:44:16.752Z,3.55
2022-10-05T21:46:43.657Z,3.30
2022-10-05T21:49:10.076Z,4.57
2022-10-05T21:51:37.039Z,3.17
2022-10-05T21:54:11.116Z,3.83
2022-10-05T21:56:42.752Z,3.50
2022-10-05T21:59:12.422Z,3.63
2022-10-05T22:01:38.876Z,3.83
2022-10-05T22:04:06.104Z,3.67
2022-10-05T22:06:34.310Z,3.13
2022-10-05T22:09:01.311Z,3.83
2022-10-05T22:11:28.926Z,3.28
2022-10-05T22:14:01.982Z,3.25
2022-10-05T22:16:34.557Z,3.92
2022-10-05T22:19:06.565Z,3.30
2022-10-05T22:21:37.846Z,3.47
2022-10-05T22:24:04.506Z,3.47
2022-10-05T22:29:20.419Z,3.80
2022-10-05T22:31:48.677Z,3.40
2022-10-05T22:34:16.494Z,3.88
2022-10-05T22:36:43.051Z,3.78
2022-10-05T22:39:09.431Z,3.75
2022-10-05T22:41:35.915Z,3.97
2022-10-05T22:44:02.679Z,3.70
2022-10-05T22:46:29.190Z,3.20
2022-10-05T22:48:55.604Z,3.05
2022-10-05T22:51:21.988Z,4.47
2022-10-05T22:53:48.341Z,3.65
2022-10-05T22:56:15.529Z,3.15
2022-10-05T22:58:43.188Z,3.40
2022-10-05T23:01:16.494Z,3.53
2022-10-05T23:03:43.719Z,3.17
2022-10-05T23:06:16.332Z,3.08
2022-10-05T23:08:43.725Z,3.10
2022-10-05T23:11:12.171Z,3.38
2022-10-05T23:13:38.940Z,3.50
2022-10-05T23:16:10.700Z,3.45
2022-10-05T23:18:38.032Z,3.50
2022-10-05T23:21:07.725Z,3.03
2022-10-05T23:23:38.325Z,3.60
2022-10-05T23:26:06.579Z,3.58
2022-10-05T23:28:33.752Z,3.08
2022-10-05T23:31:02.593Z,3.03
2022-10-05T23:33:30.764Z,3.22
2022-10-05T23:36:06.688Z,3.17
2022-10-05T23:38:34.985Z,3.40
2022-10-05T23:41:02.567Z,3.00
2022-10-05T23:43:29.468Z,3.17
2022-10-05T23:45:56.309Z,3.42
2022-10-05T23:48:22.840Z,3.03
2022-10-05T23:50:49.976Z,3.25
2022-10-05T23:53:17.734Z,3.15
2022-10-05T23:55:44.709Z,3.47
2022-10-05T23:58:11.974Z,3.10
